Time;durP1;ratioP1;P1;durP2;ratioP2;P2;SDS_P1;SDS_P2;PMS_P1;PMS_P2;Temp;Humidity;BMP_temperature;BMP_pressure;BME280_temperature;BME280_humidity;BME280_pressure;Samples;Min_cycle;Max_cycle;Signal;HPM_P1;HPM_P2
2023/11/27 00:02:20;;;;;;;4.80;3.03;;;;;;;;;;5064146;28;20054;-72
2023/11/27 00:04:46;;;;;;;5.57;3.40;;;;;;;;;;5061463;28;20498;-71
2023/11/27 00:07:12;;;;;;;3.38;3.03;;;;;;;;;;5058724;28;20029;-71
2023/11/27 00:09:38;;;;;;;7.80;4.20;;;;;;;;;;5063921;28;20036;-71
2023/11/27 00:12:05;;;;;;;5.30;3.45;;;;;;;;;;5065103;28;20027;-71
2023/11/27 00:14:31;;;;;;;5.53;3.63;;;;;;;;;;5064937;28;20029;-70
2023/11/27 00:16:57;;;;;;;8.70;4.60;;;;;;;;;;5062871;28;20054;-71
2023/11/27 00:19:23;;;;;;;6.18;3.03;;;;;;;;;;5056536;28;20108;-71
2023/11/27 00:21:49;;;;;;;4.65;3.10;;;;;;;;;;5065534;28;20032;-71
2023/11/27 00:24:16;;;;;;;3.55;3.17;;;;;;;;;;5064731;28;20033;-70
2023/11/27 00:26:42;;;;;;;5.38;3.78;;;;;;;;;;5068187;28;20058;-72
2023/11/27 00:29:09;;;;;;;7.80;3.80;;;;;;;;;;5064110;28;20024;-72
2023/11/27 00:31:35;;;;;;;8.60;3.63;;;;;;;;;;5069396;28;20021;-75
2023/11/27 00:34:02;;;;;;;6.15;3.20;;;;;;;;;;5066413;28;20715;-71
2023/11/27 00:36:28;;;;;;;4.40;3.70;;;;;;;;;;5069559;28;20063;-71
2023/11/27 00:38:54;;;;;;;3.88;3.20;;;;;;;;;;5062665;28;20030;-71
2023/11/27 00:41:20;;;;;;;4.65;3.20;;;;;;;;;;5064645;28;20562;-70
2023/11/27 00:43:50;;;;;;;6.68;3.58;;;;;;;;;;5062205;28;20060;-71
2023/11/27 00:46:19;;;;;;;4.63;2.78;;;;;;;;;;5061566;28;20036;-70
2023/11/27 00:48:45;;;;;;;3.67;2.85;;;;;;;;;;5068580;28;20047;-71
2023/11/27 00:51:13;;;;;;;10.35;4.32;;;;;;;;;;5063892;28;20056;-71
2023/11/27 00:53:39;;;;;;;6.00;4.32;;;;;;;;;;5068951;28;20024;-71
2023/11/27 00:56:06;;;;;;;4.93;3.20;;;;;;;;;;5069280;28;20162;-71
2023/11/27 00:58:32;;;;;;;5.72;3.42;;;;;;;;;;5064612;28;20036;-70
2023/11/27 01:00:58;;;;;;;7.32;3.90;;;;;;;;;;5066718;28;20039;-71
2023/11/27 01:03:24;;;;;;;6.22;3.50;;;;;;;;;;5060875;28;20458;-70
2023/11/27 01:05:51;;;;;;;4.57;3.15;;;;;;;;;;5063906;28;20024;-71
2023/11/27 01:08:17;;;;;;;5.95;3.50;;;;;;;;;;5067808;28;20357;-71
2023/11/27 01:10:43;;;;;;;7.32;3.47;;;;;;;;;;5061673;28;20032;-71
2023/11/27 01:13:12;;;;;;;5.57;3.53;;;;;;;;;;5084056;28;20017;-72
2023/11/27 01:15:38;;;;;;;6.97;3.65;;;;;;;;;;5059500;28;20060;-71
2023/11/27 01:18:05;;;;;;;8.77;3.92;;;;;;;;;;5065551;28;20024;-71
2023/11/27 01:20:31;;;;;;;6.00;3.35;;;;;;;;;;5068568;28;20107;-70
2023/11/27 01:22:57;;;;;;;6.68;4.50;;;;;;;;;;5073367;28;20084;-70
2023/11/27 01:25:23;;;;;;;9.15;3.67;;;;;;;;;;5065174;28;20432;-70
2023/11/27 01:27:49;;;;;;;8.25;3.10;;;;;;;;;;5063476;28;20092;-70
2023/11/27 01:30:18;;;;;;;5.45;3.88;;;;;;;;;;5067411;28;20417;-70
2023/11/27 01:32:47;;;;;;;6.07;3.38;;;;;;;;;;5063391;28;20093;-70
2023/11/27 01:35:14;;;;;;;7.85;3.80;;;;;;;;;;5070507;28;20080;-71
2023/11/27 01:37:40;;;;;;;9.50;3.80;;;;;;;;;;5066287;28;20035;-71
2023/11/27 01:40:06;;;;;;;8.43;4.00;;;;;;;;;;5062619;28;20045;-71
2023/11/27 01:42:35;;;;;;;5.75;3.80;;;;;;;;;;5063563;28;20020;-70
2023/11/27 01:45:01;;;;;;;5.47;3.30;;;;;;;;;;5052381;28;20048;-71
2023/11/27 01:47:28;;;;;;;6.55;4.22;;;;;;;;;;5080340;28;20035;-70
2023/11/27 01:49:54;;;;;;;6.50;3.80;;;;;;;;;;5060893;28;20112;-71
2023/11/27 01:52:21;;;;;;;6.85;4.05;;;;;;;;;;5066612;28;20145;-70
2023/11/27 01:54:48;;;;;;;6.95;3.60;;;;;;;;;;5064499;28;20033;-70
2023/11/27 01:57:15;;;;;;;7.72;4.10;;;;;;;;;;5065675;28;20040;-70
2023/11/27 01:59:46;;;;;;;7.53;3.47;;;;;;;;;;5062000;28;20115;-72
2023/11/27 02:02:15;;;;;;;5.18;3.47;;;;;;;;;;5063816;28;20024;-71
2023/11/27 02:04:42;;;;;;;8.35;4.05;;;;;;;;;;5056066;28;20416;-70
2023/11/27 02:07:09;;;;;;;4.97;3.55;;;;;;;;;;5062356;28;20052;-70
2023/11/27 02:09:35;;;;;;;4.20;3.22;;;;;;;;;;5066617;28;20020;-70
2023/11/27 02:12:04;;;;;;;4.95;3.42;;;;;;;;;;5060104;28;20029;-69
2023/11/27 02:14:30;;;;;;;4.45;3.15;;;;;;;;;;5060918;28;20024;-70
2023/11/27 02:16:57;;;;;;;5.22;4.10;;;;;;;;;;5065404;28;20037;-70
2023/11/27 02:19:23;;;;;;;6.28;3.50;;;;;;;;;;5064232;28;20024;-70
2023/11/27 02:21:49;;;;;;;5.97;3.13;;;;;;;;;;5062001;28;20226;-71
2023/11/27 02:24:16;;;;;;;7.25;3.40;;;;;;;;;;5062126;28;20118;-71
2023/11/27 02:26:42;;;;;;;4.45;3.15;;;;;;;;;;5060554;28;20036;-70
2023/11/27 02:29:08;;;;;;;4.05;2.75;;;;;;;;;;5077601;28;20032;-69
2023/11/27 02:31:35;;;;;;;4.78;2.92;;;;;;;;;;5054125;28;20480;-69
2023/11/27 02:34:01;;;;;;;3.33;2.53;;;;;;;;;;5067397;28;20499;-74
2023/11/27 02:36:29;;;;;;;3.38;2.75;;;;;;;;;;5065571;28;20401;-69
2023/11/27 02:38:55;;;;;;;5.05;2.78;;;;;;;;;;5063779;28;20115;-70
2023/11/27 02:41:21;;;;;;;4.65;2.55;;;;;;;;;;5061027;28;20037;-74
2023/11/27 02:43:48;;;;;;;4.05;2.40;;;;;;;;;;5058080;28;20052;-70
2023/11/27 02:46:15;;;;;;;4.47;2.35;;;;;;;;;;5060078;28;20112;-69
2023/11/27 02:48:42;;;;;;;2.65;2.28;;;;;;;;;;5059273;28;20557;-70
2023/11/27 02:51:08;;;;;;;3.75;2.50;;;;;;;;;;5058006;28;20058;-70
2023/11/27 02:53:34;;;;;;;2.95;2.47;;;;;;;;;;5060781;28;20021;-70
2023/11/27 02:56:00;;;;;;;3.90;2.97;;;;;;;;;;5058667;28;20033;-70
2023/11/27 02:58:26;;;;;;;5.68;4.07;;;;;;;;;;5074070;28;20028;-69
2023/11/27 03:00:53;;;;;;;5.78;3.22;;;;;;;;;;5059083;28;20044;-70
2023/11/27 03:03:19;;;;;;;6.82;3.40;;;;;;;;;;5053975;28;20032;-70
2023/11/27 03:05:45;;;;;;;5.15;3.00;;;;;;;;;;5069492;28;20029;-70
2023/11/27 03:08:11;;;;;;;4.65;3.20;;;;;;;;;;5048470;28;20534;-70
2023/11/27 03:10:37;;;;;;;7.07;3.40;;;;;;;;;;5054594;28;20137;-70
2023/11/27 03:13:03;;;;;;;3.75;2.85;;;;;;;;;;5064208;28;20043;-69
2023/11/27 03:15:30;;;;;;;4.22;2.83;;;;;;;;;;5058381;28;20036;-69
2023/11/27 03:17:56;;;;;;;6.32;3.28;;;;;;;;;;5060102;28;20048;-69
2023/11/27 03:20:22;;;;;;;4.20;2.60;;;;;;;;;;5062041;28;20052;-69
2023/11/27 03:22:48;;;;;;;3.03;2.53;;;;;;;;;;5061917;28;20470;-70
2023/11/27 03:25:15;;;;;;;5.35;2.78;;;;;;;;;;5064520;28;20028;-71
2023/11/27 03:27:41;;;;;;;4.53;2.88;;;;;;;;;;5066253;28;20063;-70
2023/11/27 03:30:09;;;;;;;6.20;2.90;;;;;;;;;;5057136;28;20036;-70
2023/11/27 03:32:36;;;;;;;4.40;2.63;;;;;;;;;;5053638;28;20031;-70
2023/11/27 03:35:04;;;;;;;4.75;3.25;;;;;;;;;;5061944;28;20036;-71
2023/11/27 03:37:30;;;;;;;3.08;2.58;;;;;;;;;;5059386;28;20499;-69
2023/11/27 03:39:57;;;;;;;5.25;3.13;;;;;;;;;;5061847;28;20024;-71
2023/11/27 03:42:23;;;;;;;5.13;2.60;;;;;;;;;;5064530;28;20029;-70
2023/11/27 03:44:49;;;;;;;6.97;3.00;;;;;;;;;;5061943;28;20056;-69
2023/11/27 03:47:15;;;;;;;5.03;3.00;;;;;;;;;;5063308;28;20068;-69
2023/11/27 03:49:41;;;;;;;4.75;3.15;;;;;;;;;;5061645;28;20073;-70
2023/11/27 03:52:11;;;;;;;5.45;2.85;;;;;;;;;;5080345;28;20027;-70
2023/11/27 03:54:37;;;;;;;4.68;3.10;;;;;;;;;;5066565;28;20032;-69
2023/11/27 03:57:03;;;;;;;7.15;3.20;;;;;;;;;;5059073;28;20768;-70
2023/11/27 03:59:29;;;;;;;5.95;3.00;;;;;;;;;;5069766;28;20028;-70
2023/11/27 04:01:55;;;;;;;5.40;3.00;;;;;;;;;;5058821;28;20021;-70
2023/11/27 04:04:21;;;;;;;5.25;3.08;;;;;;;;;;5067836;28;20032;-69
2023/11/27 04:06:48;;;;;;;4.97;2.55;;;;;;;;;;5062324;28;20058;-69
2023/11/27 04:09:16;;;;;;;3.72;2.60;;;;;;;;;;5076375;28;20480;-69
2023/11/27 04:11:47;;;;;;;6.38;2.80;;;;;;;;;;5072692;28;20481;-70
2023/11/27 04:14:13;;;;;;;5.32;2.70;;;;;;;;;;5061838;28;20548;-70
2023/11/27 04:16:39;;;;;;;3.47;2.80;;;;;;;;;;5057772;28;20025;-70
2023/11/27 04:19:06;;;;;;;4.65;3.05;;;;;;;;;;5059616;28;20032;-70
2023/11/27 04:21:32;;;;;;;3.63;2.53;;;;;;;;;;5062165;28;20036;-69
2023/11/27 04:24:00;;;;;;;5.55;3.05;;;;;;;;;;5067677;28;20678;-69
2023/11/27 04:26:26;;;;;;;2.55;2.10;;;;;;;;;;5067763;28;20472;-69
2023/11/27 04:28:52;;;;;;;5.80;3.03;;;;;;;;;;5064325;28;20040;-69
2023/11/27 04:31:18;;;;;;;3.60;2.50;;;;;;;;;;5069645;28;20024;-69
2023/11/27 04:33:44;;;;;;;3.55;2.50;;;;;;;;;;5063908;28;20059;-69
2023/11/27 04:36:11;;;;;;;3.25;2.20;;;;;;;;;;5063817;28;20043;-69
2023/11/27 04:38:37;;;;;;;3.67;2.70;;;;;;;;;;5061243;28;20034;-70
2023/11/27 04:41:03;;;;;;;3.53;2.22;;;;;;;;;;5059225;28;20104;-68
2023/11/27 04:43:29;;;;;;;3.00;2.17;;;;;;;;;;5079688;28;20067;-68
2023/11/27 04:45:55;;;;;;;3.13;2.30;;;;;;;;;;5063572;28;20377;-69
2023/11/27 04:48:22;;;;;;;3.60;2.40;;;;;;;;;;5066094;28;20110;-69
2023/11/27 04:50:48;;;;;;;3.33;2.40;;;;;;;;;;5062512;28;20029;-69
2023/11/27 04:53:15;;;;;;;5.15;2.88;;;;;;;;;;5059047;28;20380;-70
2023/11/27 04:55:43;;;;;;;2.60;2.22;;;;;;;;;;5065147;28;20035;-68
2023/11/27 04:58:09;;;;;;;3.70;2.47;;;;;;;;;;5056377;28;20049;-69
2023/11/27 05:00:36;;;;;;;2.97;2.13;;;;;;;;;;5061107;28;20432;-70
2023/11/27 05:03:02;;;;;;;2.95;2.15;;;;;;;;;;5065823;28;20444;-70
2023/11/27 05:05:28;;;;;;;2.90;2.58;;;;;;;;;;5060104;28;20400;-71
2023/11/27 05:07:55;;;;;;;2.30;2.00;;;;;;;;;;5064367;28;20033;-70
2023/11/27 05:10:22;;;;;;;2.60;2.10;;;;;;;;;;5059603;28;20111;-69
2023/11/27 05:12:48;;;;;;;3.13;1.90;;;;;;;;;;5062568;28;20032;-70
2023/11/27 05:15:14;;;;;;;2.83;2.00;;;;;;;;;;5057695;28;20025;-70
2023/11/27 05:17:40;;;;;;;3.30;2.28;;;;;;;;;;5070459;28;20051;-69
2023/11/27 05:20:09;;;;;;;2.70;1.77;;;;;;;;;;5062724;28;20032;-70
2023/11/27 05:22:35;;;;;;;2.00;1.80;;;;;;;;;;5066829;28;20392;-70
2023/11/27 05:25:01;;;;;;;2.03;1.60;;;;;;;;;;5058810;28;20033;-72
2023/11/27 05:27:27;;;;;;;1.70;1.60;;;;;;;;;;5061508;28;20036;-72
2023/11/27 05:29:53;;;;;;;2.95;1.88;;;;;;;;;;5058755;28;20025;-70
2023/11/27 05:32:19;;;;;;;2.30;1.60;;;;;;;;;;5068280;28;20047;-68
2023/11/27 05:34:45;;;;;;;2.00;1.77;;;;;;;;;;5054113;28;20028;-70
2023/11/27 05:37:12;;;;;;;2.30;1.80;;;;;;;;;;5058177;28;20058;-70
2023/11/27 05:39:41;;;;;;;2.13;1.92;;;;;;;;;;5058920;28;20362;-69
2023/11/27 05:42:11;;;;;;;1.83;1.65;;;;;;;;;;5055460;28;20027;-66
2023/11/27 05:44:38;;;;;;;2.40;1.70;;;;;;;;;;5052822;28;20112;-68
2023/11/27 05:47:04;;;;;;;1.77;1.67;;;;;;;;;;5062420;28;20032;-66
2023/11/27 05:49:31;;;;;;;2.38;1.77;;;;;;;;;;5060993;28;20029;-66
2023/11/27 05:51:57;;;;;;;1.67;1.58;;;;;;;;;;5062368;28;20056;-66
2023/11/27 05:54:27;;;;;;;1.55;1.45;;;;;;;;;;5063345;28;20099;-68
2023/11/27 05:56:53;;;;;;;1.38;1.35;;;;;;;;;;5065002;28;20035;-66
2023/11/27 05:59:19;;;;;;;1.70;1.60;;;;;;;;;;5064280;28;20032;-66
2023/11/27 06:01:45;;;;;;;2.28;1.77;;;;;;;;;;5061663;28;20078;-65
2023/11/27 06:04:11;;;;;;;1.63;1.52;;;;;;;;;;5062251;28;20020;-66
2023/11/27 06:06:38;;;;;;;2.17;1.63;;;;;;;;;;5057871;28;20104;-66
2023/11/27 06:09:06;;;;;;;1.55;1.45;;;;;;;;;;5063689;28;20502;-66
2023/11/27 06:11:32;;;;;;;1.48;1.38;;;;;;;;;;5057079;28;20051;-65
2023/11/27 06:13:58;;;;;;;1.60;1.50;;;;;;;;;;5058223;28;20253;-66
2023/11/27 06:16:28;;;;;;;2.10;1.70;;;;;;;;;;5058772;28;20039;-67
2023/11/27 06:18:54;;;;;;;1.80;1.70;;;;;;;;;;5064183;28;20033;-66
2023/11/27 06:21:20;;;;;;;1.70;1.60;;;;;;;;;;5059672;28;20480;-67
2023/11/27 06:23:46;;;;;;;1.90;1.80;;;;;;;;;;5063964;28;20037;-65
2023/11/27 06:26:12;;;;;;;2.63;1.58;;;;;;;;;;5075967;28;20036;-66
2023/11/27 06:28:39;;;;;;;1.83;1.60;;;;;;;;;;5064421;28;20111;-66
2023/11/27 06:31:06;;;;;;;2.00;1.58;;;;;;;;;;5061571;28;20233;-66
2023/11/27 06:33:32;;;;;;;1.80;1.70;;;;;;;;;;5059667;28;20115;-66
2023/11/27 06:35:58;;;;;;;2.30;1.70;;;;;;;;;;5057236;28;20038;-66
2023/11/27 06:38:25;;;;;;;2.05;1.80;;;;;;;;;;5066470;28;20025;-68
2023/11/27 06:40:51;;;;;;;3.67;1.90;;;;;;;;;;5061538;28;20118;-66
2023/11/27 06:43:17;;;;;;;2.50;1.80;;;;;;;;;;5055100;28;20024;-66
2023/11/27 06:45:43;;;;;;;2.90;1.83;;;;;;;;;;5060760;28;20114;-69
2023/11/27 06:48:09;;;;;;;2.50;1.85;;;;;;;;;;5055990;28;21607;-66
2023/11/27 06:50:36;;;;;;;2.85;2.03;;;;;;;;;;5056495;28;20093;-66
2023/11/27 06:53:02;;;;;;;2.80;2.03;;;;;;;;;;5059257;28;20305;-66
2023/11/27 06:55:28;;;;;;;3.17;2.20;;;;;;;;;;5057044;28;20530;-66
2023/11/27 06:57:54;;;;;;;2.17;1.88;;;;;;;;;;5065565;28;20032;-66
2023/11/27 07:00:20;;;;;;;2.47;1.90;;;;;;;;;;5060525;28;20039;-67
2023/11/27 07:02:47;;;;;;;2.55;1.77;;;;;;;;;;5066936;28;20444;-66
2023/11/27 07:05:13;;;;;;;2.55;1.80;;;;;;;;;;5066472;28;20071;-65
2023/11/27 07:07:39;;;;;;;4.47;2.17;;;;;;;;;;5078001;28;20102;-69
2023/11/27 07:10:05;;;;;;;2.10;1.90;;;;;;;;;;5067802;28;20075;-69
2023/11/27 07:12:32;;;;;;;3.88;2.30;;;;;;;;;;5069595;28;20058;-64
2023/11/27 07:14:59;;;;;;;2.50;2.10;;;;;;;;;;5059095;28;20029;-65
2023/11/27 07:17:25;;;;;;;2.95;2.22;;;;;;;;;;5071469;28;20032;-65
2023/11/27 07:19:52;;;;;;;2.53;2.03;;;;;;;;;;5079409;28;20151;-66
2023/11/27 07:22:18;;;;;;;2.25;1.80;;;;;;;;;;5064757;28;20444;-66
2023/11/27 07:24:44;;;;;;;3.47;2.22;;;;;;;;;;5063761;28;20062;-65
2023/11/27 07:27:11;;;;;;;2.35;2.15;;;;;;;;;;5065891;28;20032;-70
2023/11/27 07:29:38;;;;;;;4.22;2.58;;;;;;;;;;5075688;28;20115;-66
2023/11/27 07:32:05;;;;;;;3.85;2.20;;;;;;;;;;5065425;28;20078;-66
2023/11/27 07:34:31;;;;;;;4.07;2.08;;;;;;;;;;5062083;28;20016;-68
2023/11/27 07:36:58;;;;;;;3.10;2.25;;;;;;;;;;5069844;28;20056;-66
2023/11/27 07:39:25;;;;;;;5.72;1.98;;;;;;;;;;5063098;28;20052;-66
2023/11/27 07:41:52;;;;;;;3.05;2.00;;;;;;;;;;5069883;28;20039;-66
2023/11/27 07:44:19;;;;;;;2.70;1.80;;;;;;;;;;5054927;28;20508;-66
2023/11/27 07:46:45;;;;;;;2.22;1.90;;;;;;;;;;5059345;28;20089;-66
2023/11/27 07:49:13;;;;;;;2.78;2.05;;;;;;;;;;5058074;28;20033;-66
2023/11/27 07:51:41;;;;;;;3.15;2.13;;;;;;;;;;5067137;28;20487;-66
2023/11/27 07:54:07;;;;;;;3.05;2.28;;;;;;;;;;5062094;28;20028;-65
2023/11/27 07:56:33;;;;;;;1.90;1.70;;;;;;;;;;5063282;28;20033;-68
2023/11/27 07:59:00;;;;;;;2.60;2.10;;;;;;;;;;5058542;28;20587;-66
2023/11/27 08:01:26;;;;;;;2.38;2.08;;;;;;;;;;5060075;28;20033;-67
2023/11/27 08:03:53;;;;;;;3.42;2.28;;;;;;;;;;5085447;28;20036;-66
2023/11/27 08:06:19;;;;;;;3.03;1.80;;;;;;;;;;5059530;28;20488;-66
2023/11/27 08:08:45;;;;;;;2.15;1.90;;;;;;;;;;5068080;28;20036;-69
2023/11/27 08:11:12;;;;;;;2.97;2.20;;;;;;;;;;5064806;28;20060;-66
2023/11/27 08:13:42;;;;;;;3.55;2.30;;;;;;;;;;5070039;28;20103;-65
2023/11/27 08:16:08;;;;;;;2.72;2.20;;;;;;;;;;5061802;28;20036;-66
2023/11/27 08:18:35;;;;;;;2.50;2.17;;;;;;;;;;5062584;28;20543;-67
2023/11/27 08:21:05;;;;;;;3.50;2.13;;;;;;;;;;5064959;28;20382;-66
2023/11/27 08:23:34;;;;;;;3.75;2.05;;;;;;;;;;5060956;28;20143;-66
2023/11/27 08:26:03;;;;;;;3.83;2.20;;;;;;;;;;5067419;28;20127;-67
2023/11/27 08:28:29;;;;;;;3.10;2.63;;;;;;;;;;5069844;28;20111;-66
2023/11/27 08:30:56;;;;;;;3.75;2.50;;;;;;;;;;5058613;28;20335;-66
2023/11/27 08:33:22;;;;;;;3.90;1.80;;;;;;;;;;5073044;28;20024;-67
2023/11/27 08:35:48;;;;;;;2.47;2.22;;;;;;;;;;5061295;28;20530;-66
2023/11/27 08:38:14;;;;;;;3.40;2.03;;;;;;;;;;5050480;28;20044;-65
2023/11/27 08:40:41;;;;;;;2.17;1.98;;;;;;;;;;5081109;28;20464;-66
2023/11/27 08:43:08;;;;;;;3.47;2.45;;;;;;;;;;5053857;28;20028;-66
2023/11/27 08:45:34;;;;;;;2.55;2.00;;;;;;;;;;5078435;28;20703;-66
2023/11/27 08:48:00;;;;;;;2.70;2.10;;;;;;;;;;5064037;28;20036;-66
2023/11/27 08:50:29;;;;;;;2.83;2.08;;;;;;;;;;5062063;28;20025;-66
2023/11/27 08:52:57;;;;;;;2.45;1.92;;;;;;;;;;5066466;28;20033;-66
2023/11/27 08:55:28;;;;;;;1.98;1.80;;;;;;;;;;5055105;28;20043;-66
2023/11/27 08:57:57;;;;;;;2.15;1.95;;;;;;;;;;5062200;28;20032;-66
2023/11/27 09:00:28;;;;;;;2.70;2.00;;;;;;;;;;5060368;28;20086;-66
2023/11/27 09:02:56;;;;;;;2.40;2.10;;;;;;;;;;5058731;28;20048;-66
2023/11/27 09:05:26;;;;;;;4.88;2.22;;;;;;;;;;5067549;28;20032;-66
2023/11/27 09:07:57;;;;;;;2.25;1.92;;;;;;;;;;5066357;28;20465;-66
2023/11/27 09:10:24;;;;;;;2.28;1.80;;;;;;;;;;5061223;28;20024;-67
2023/11/27 09:12:50;;;;;;;1.98;1.77;;;;;;;;;;5063957;28;20035;-66
2023/11/27 09:15:20;;;;;;;2.65;1.85;;;;;;;;;;5070903;28;20139;-66
2023/11/27 09:17:48;;;;;;;2.80;2.28;;;;;;;;;;5061005;28;20040;-66
2023/11/27 09:20:15;;;;;;;2.83;2.05;;;;;;;;;;5075929;28;20037;-66
2023/11/27 09:22:43;;;;;;;2.45;2.15;;;;;;;;;;5064779;28;20545;-66
2023/11/27 09:25:12;;;;;;;2.35;2.13;;;;;;;;;;5061539;28;20033;-66
2023/11/27 09:27:41;;;;;;;6.13;2.40;;;;;;;;;;5070320;28;20032;-65
2023/11/27 09:30:07;;;;;;;3.90;2.00;;;;;;;;;;5065636;28;20054;-65
2023/11/27 09:32:42;;;;;;;3.53;2.55;;;;;;;;;;5061928;28;20031;-66
2023/11/27 09:35:13;;;;;;;2.58;2.22;;;;;;;;;;5069592;28;20032;-66
2023/11/27 09:37:39;;;;;;;2.95;2.20;;;;;;;;;;5063285;28;20052;-68
2023/11/27 09:40:08;;;;;;;4.80;2.38;;;;;;;;;;5062667;28;20028;-71
2023/11/27 09:42:37;;;;;;;3.45;2.00;;;;;;;;;;5056406;28;20036;-67
2023/11/27 09:45:04;;;;;;;3.40;2.33;;;;;;;;;;5064494;28;20041;-67
2023/11/27 09:47:34;;;;;;;5.45;2.20;;;;;;;;;;5065855;28;20551;-67
2023/11/27 09:50:02;;;;;;;2.60;1.83;;;;;;;;;;5056630;28;20029;-68
2023/11/27 09:52:47;;;;;;;6.00;2.35;;;;;;;;;;5059094;28;20107;-67
2023/11/27 09:55:17;;;;;;;2.78;2.08;;;;;;;;;;5065603;28;20025;-68
2023/11/27 09:57:44;;;;;;;3.75;2.30;;;;;;;;;;5056461;28;20376;-67
2023/11/27 10:00:13;;;;;;;3.60;1.88;;;;;;;;;;5059641;28;20028;-67
2023/11/27 10:02:39;;;;;;;2.38;1.90;;;;;;;;;;5053650;28;20021;-66
2023/11/27 10:05:08;;;;;;;5.82;1.85;;;;;;;;;;5066213;28;20480;-67
2023/11/27 10:07:34;;;;;;;2.38;1.70;;;;;;;;;;5064826;28;20386;-67
2023/11/27 10:10:04;;;;;;;3.33;1.80;;;;;;;;;;5064480;28;20477;-67
2023/11/27 10:12:30;;;;;;;4.68;1.65;;;;;;;;;;5064432;28;20047;-67
2023/11/27 10:15:02;;;;;;;3.13;1.35;;;;;;;;;;5067851;28;20033;-71
2023/11/27 10:17:28;;;;;;;2.20;1.88;;;;;;;;;;5067843;28;20490;-67
2023/11/27 10:19:58;;;;;;;1.70;1.60;;;;;;;;;;5067496;28;20675;-67
2023/11/27 10:22:29;;;;;;;1.63;1.52;;;;;;;;;;5079449;28;20039;-66
2023/11/27 10:24:56;;;;;;;1.80;1.40;;;;;;;;;;5063566;28;20036;-67
2023/11/27 10:27:24;;;;;;;6.30;2.22;;;;;;;;;;5074578;28;20028;-67
2023/11/27 10:29:51;;;;;;;3.80;1.40;;;;;;;;;;5069153;28;20849;-67
2023/11/27 10:32:17;;;;;;;4.63;1.50;;;;;;;;;;5067267;28;20028;-67
2023/11/27 10:34:43;;;;;;;2.10;1.67;;;;;;;;;;5069001;28;20028;-67
2023/11/27 10:37:13;;;;;;;1.60;1.50;;;;;;;;;;5068490;28;20456;-67
2023/11/27 10:39:41;;;;;;;1.50;1.40;;;;;;;;;;5059141;28;20354;-66
2023/11/27 10:42:07;;;;;;;1.65;1.50;;;;;;;;;;5066657;28;20036;-68
2023/11/27 10:44:38;;;;;;;3.42;1.98;;;;;;;;;;5058757;28;20084;-67
2023/11/27 10:47:08;;;;;;;2.05;1.80;;;;;;;;;;5062072;28;20127;-67
2023/11/27 10:49:38;;;;;;;2.97;1.42;;;;;;;;;;5062179;28;20024;-67
2023/11/27 10:52:06;;;;;;;4.50;1.75;;;;;;;;;;5068161;28;20107;-67
2023/11/27 10:54:33;;;;;;;4.03;1.52;;;;;;;;;;5065532;28;20449;-66
2023/11/27 10:57:06;;;;;;;2.47;1.73;;;;;;;;;;5064156;28;20028;-67
2023/11/27 10:59:33;;;;;;;1.90;1.75;;;;;;;;;;5066416;28;20377;-68
2023/11/27 11:02:02;;;;;;;1.70;1.50;;;;;;;;;;5066060;28;20032;-67
2023/11/27 11:04:47;;;;;;;1.92;1.60;;;;;;;;;;5068274;28;20032;-67
2023/11/27 11:07:19;;;;;;;3.73;1.57;;;;;;;;;;5057134;28;20032;-68
2023/11/27 11:09:48;;;;;;;4.00;2.15;;;;;;;;;;5069854;28;20472;-67
2023/11/27 11:12:19;;;;;;;3.13;2.00;;;;;;;;;;5056896;28;20020;-67
2023/11/27 11:14:45;;;;;;;5.95;2.67;;;;;;;;;;5078829;28;20420;-67
2023/11/27 11:17:17;;;;;;;2.78;1.88;;;;;;;;;;5077824;28;20032;-67
2023/11/27 11:19:43;;;;;;;3.63;2.03;;;;;;;;;;5057482;28;20032;-67
2023/11/27 11:22:33;;;;;;;6.50;2.60;;;;;;;;;;5067370;28;20036;-67
2023/11/27 11:25:09;;;;;;;2.78;1.77;;;;;;;;;;5052012;28;20041;-67
2023/11/27 11:27:41;;;;;;;9.80;4.30;;;;;;;;;;5071129;28;20024;-67
2023/11/27 11:30:12;;;;;;;6.53;2.50;;;;;;;;;;5062647;28;20033;-66
2023/11/27 11:32:38;;;;;;;3.72;1.90;;;;;;;;;;5063811;28;20407;-67
2023/11/27 11:35:10;;;;;;;1.75;1.65;;;;;;;;;;5068529;28;20032;-67
2023/11/27 11:37:46;;;;;;;1.73;1.55;;;;;;;;;;5069914;28;20101;-66
2023/11/27 11:40:15;;;;;;;4.10;1.83;;;;;;;;;;5059271;28;20518;-67
2023/11/27 11:42:47;;;;;;;4.05;2.22;;;;;;;;;;5077812;28;20384;-67
2023/11/27 11:45:19;;;;;;;1.92;1.60;;;;;;;;;;5059161;28;20473;-67
2023/11/27 11:47:59;;;;;;;2.42;1.70;;;;;;;;;;5071261;28;20029;-67
2023/11/27 11:50:27;;;;;;;1.85;1.75;;;;;;;;;;5064095;28;20029;-67
2023/11/27 11:52:53;;;;;;;2.65;1.70;;;;;;;;;;5067775;28;20066;-68
2023/11/27 11:55:30;;;;;;;2.20;1.70;;;;;;;;;;5059149;28;20072;-67
2023/11/27 11:57:58;;;;;;;1.83;1.70;;;;;;;;;;5066018;28;20480;-67
2023/11/27 12:00:29;;;;;;;5.38;2.40;;;;;;;;;;5054921;28;20035;-67
2023/11/27 12:02:55;;;;;;;3.30;1.83;;;;;;;;;;5054871;28;20033;-67
2023/11/27 12:05:23;;;;;;;3.45;1.80;;;;;;;;;;5057607;28;20025;-68
2023/11/27 12:07:49;;;;;;;2.30;1.95;;;;;;;;;;5055830;28;20042;-69
2023/11/27 12:10:17;;;;;;;1.85;1.70;;;;;;;;;;5068895;28;20085;-68
2023/11/27 12:12:50;;;;;;;1.70;1.60;;;;;;;;;;5060689;28;20427;-68
2023/11/27 12:15:17;;;;;;;1.95;1.75;;;;;;;;;;5060873;28;20512;-68
2023/11/27 12:17:44;;;;;;;2.03;1.83;;;;;;;;;;5058991;28;20396;-68
2023/11/27 12:20:11;;;;;;;1.90;1.80;;;;;;;;;;5081167;28;20051;-67
2023/11/27 12:22:38;;;;;;;1.95;1.60;;;;;;;;;;5067778;28;20020;-68
2023/11/27 12:25:05;;;;;;;1.80;1.70;;;;;;;;;;5049989;28;20040;-68
2023/11/27 12:27:34;;;;;;;1.60;1.50;;;;;;;;;;5067182;28;20027;-69
2023/11/27 12:30:00;;;;;;;1.85;1.60;;;;;;;;;;5083897;28;20120;-69
2023/11/27 12:32:27;;;;;;;1.70;1.60;;;;;;;;;;5067850;28;20439;-69
2023/11/27 12:34:53;;;;;;;1.70;1.60;;;;;;;;;;5054488;28;20473;-69
2023/11/27 12:37:20;;;;;;;2.05;1.73;;;;;;;;;;5060180;28;20056;-69
2023/11/27 12:39:53;;;;;;;1.85;1.70;;;;;;;;;;5060362;28;20487;-68
2023/11/27 12:42:22;;;;;;;1.70;1.60;;;;;;;;;;5059614;28;20365;-69
2023/11/27 12:44:49;;;;;;;6.78;2.30;;;;;;;;;;5068446;28;20088;-69
2023/11/27 12:47:19;;;;;;;2.00;1.80;;;;;;;;;;5064148;28;20032;-70
2023/11/27 12:49:48;;;;;;;2.05;1.85;;;;;;;;;;5065921;28;20369;-69
2023/11/27 12:52:15;;;;;;;4.65;1.60;;;;;;;;;;5060445;28;20025;-69
2023/11/27 12:54:41;;;;;;;6.03;2.38;;;;;;;;;;5062427;28;20036;-69
2023/11/27 12:57:10;;;;;;;1.70;1.60;;;;;;;;;;5065360;28;20024;-69
2023/11/27 12:59:42;;;;;;;1.80;1.70;;;;;;;;;;5061542;28;20028;-69
2023/11/27 13:02:08;;;;;;;3.80;1.80;;;;;;;;;;5053882;28;20141;-68
2023/11/27 13:04:38;;;;;;;1.40;1.30;;;;;;;;;;5063866;28;20082;-69
2023/11/27 13:07:14;;;;;;;2.17;1.85;;;;;;;;;;5054677;28;20035;-68
2023/11/27 13:09:41;;;;;;;4.20;2.10;;;;;;;;;;5067526;28;20494;-69
2023/11/27 13:12:18;;;;;;;1.90;1.80;;;;;;;;;;5076096;28;20063;-68
2023/11/27 13:14:50;;;;;;;2.58;1.88;;;;;;;;;;5061637;28;20043;-68
2023/11/27 13:17:20;;;;;;;3.17;1.60;;;;;;;;;;5063107;28;20035;-70
2023/11/27 13:19:55;;;;;;;2.55;1.80;;;;;;;;;;5064235;28;20119;-68
2023/11/27 13:22:22;;;;;;;6.60;1.90;;;;;;;;;;5060848;28;20029;-67
2023/11/27 13:24:53;;;;;;;3.15;1.90;;;;;;;;;;5068452;28;20025;-68
2023/11/27 13:27:24;;;;;;;2.17;1.98;;;;;;;;;;5050807;28;20801;-68
2023/11/27 13:29:50;;;;;;;1.58;1.48;;;;;;;;;;5055676;28;20025;-68
2023/11/27 13:32:17;;;;;;;1.98;1.83;;;;;;;;;;5066848;28;20034;-68
2023/11/27 13:34:44;;;;;;;2.08;1.88;;;;;;;;;;5066085;28;20063;-68
2023/11/27 13:37:11;;;;;;;2.05;1.80;;;;;;;;;;5068304;28;20055;-68
2023/11/27 13:39:54;;;;;;;1.60;1.50;;;;;;;;;;5053808;28;20467;-68
2023/11/27 13:42:23;;;;;;;3.17;2.25;;;;;;;;;;5054374;28;20047;-69
2023/11/27 13:44:49;;;;;;;3.58;2.08;;;;;;;;;;5060304;28;20385;-69
2023/11/27 13:47:20;;;;;;;3.20;2.10;;;;;;;;;;5057850;28;20064;-70
2023/11/27 13:49:48;;;;;;;4.72;2.38;;;;;;;;;;5066856;28;20095;-70
2023/11/27 13:52:15;;;;;;;2.25;2.00;;;;;;;;;;5064139;28;20067;-69
2023/11/27 13:54:41;;;;;;;2.80;1.90;;;;;;;;;;5056658;28;20040;-68
2023/11/27 13:57:09;;;;;;;2.83;1.92;;;;;;;;;;5076347;28;20101;-68
2023/11/27 13:59:35;;;;;;;3.33;2.47;;;;;;;;;;5064592;28;20063;-68
2023/11/27 14:02:12;;;;;;;6.68;2.30;;;;;;;;;;5060092;28;20470;-69
2023/11/27 14:04:47;;;;;;;3.22;2.10;;;;;;;;;;5064398;28;20233;-68
2023/11/27 14:07:18;;;;;;;4.65;1.92;;;;;;;;;;5057945;28;20074;-69
2023/11/27 14:12:14;;;;;;;2.85;1.90;;;;;;;;;;5059664;28;20488;-68
2023/11/27 14:14:48;;;;;;;2.55;2.03;;;;;;;;;;5064106;28;20020;-68
2023/11/27 14:17:31;;;;;;;2.75;1.80;;;;;;;;;;5058488;28;20032;-69
2023/11/27 14:23:04;;;;;;;5.78;2.97;;;;;;;;;;5073453;28;20030;-69
2023/11/27 14:28:57;;;;;;;1.42;1.33;;;;;;;;;;5073116;28;20076;-69
2023/11/27 14:31:19;;;;;;;4.22;1.80;;;;;;;;;;5065715;28;20067;-68
2023/11/27 14:33:50;;;;;;;3.15;1.83;;;;;;;;;;5062120;28;20028;-69
2023/11/27 14:36:16;;;;;;;3.88;2.30;;;;;;;;;;5075431;28;20092;-68
2023/11/27 14:38:42;;;;;;;2.28;1.60;;;;;;;;;;5079936;28;20489;-68
2023/11/27 14:41:09;;;;;;;1.70;1.40;;;;;;;;;;5058878;28;20032;-68
2023/11/27 14:43:35;;;;;;;2.53;1.35;;;;;;;;;;5066739;28;20040;-68
2023/11/27 14:46:02;;;;;;;3.95;2.10;;;;;;;;;;5059353;28;20036;-69
2023/11/27 14:48:32;;;;;;;2.05;1.85;;;;;;;;;;5062225;28;20100;-72
2023/11/27 14:50:59;;;;;;;1.67;1.58;;;;;;;;;;5062463;28;20111;-70
2023/11/27 14:53:26;;;;;;;3.60;1.80;;;;;;;;;;5051664;28;20028;-69
2023/11/27 14:55:52;;;;;;;1.52;1.42;;;;;;;;;;5056148;28;20025;-68